Time;durP1;ratioP1;P1;durP2;ratioP2;P2;SDS_P1;SDS_P2;PMS_P1;PMS_P2;Temp;Humidity;BMP_temperature;BMP_pressure;BME280_temperature;BME280_humidity;BME280_pressure;Samples;Min_cycle;Max_cycle;Signal;HPM_P1;HPM_P2
2021/03/30 00:02:09;;;;;;;9.90;8.90;;;;;;;;;;5110136;28;20170;-44
2021/03/30 00:04:34;;;;;;;8.20;7.40;;;;;;;;;;5110457;28;20171;-42
2021/03/30 00:06:59;;;;;;;;;;;;;;;;;;5110097;28;20110;-42
2021/03/30 00:09:24;;;;;;;7.50;6.80;;;;;;;;;;5108112;28;20710;-43
2021/03/30 00:11:49;;;;;;;8.53;7.20;;;;;;;;;;5108419;28;24990;-44
2021/03/30 00:14:14;;;;;;;7.30;6.60;;;;;;;;;;5108419;28;24513;-44
2021/03/30 00:16:39;;;;;;;7.70;6.90;;;;;;;;;;5108909;28;24428;-43
2021/03/30 00:19:05;;;;;;;6.63;6.00;;;;;;;;;;5106217;28;24460;-43
2021/03/30 00:21:30;;;;;;;6.40;5.80;;;;;;;;;;5104604;28;24417;-43
2021/03/30 00:23:55;;;;;;;6.57;5.67;;;;;;;;;;5099453;28;24421;-43
2021/03/30 00:26:20;;;;;;;7.23;6.53;;;;;;;;;;5106809;28;24483;-44
2021/03/30 00:28:46;;;;;;;9.23;7.50;;;;;;;;;;5107528;28;24462;-43
2021/03/30 00:31:11;;;;;;;7.88;7.18;;;;;;;;;;5110161;28;20178;-43
2021/03/30 00:33:36;;;;;;;8.20;7.40;;;;;;;;;;5109264;28;20257;-43
2021/03/30 00:36:01;;;;;;;6.70;6.10;;;;;;;;;;5107413;28;20175;-42
2021/03/30 00:38:26;;;;;;;7.57;6.70;;;;;;;;;;5098554;28;20206;-42
2021/03/30 00:40:52;;;;;;;10.23;7.30;;;;;;;;;;5109563;28;20734;-42
2021/03/30 00:43:18;;;;;;;10.53;7.47;;;;;;;;;;5109862;28;20170;-42
2021/03/30 00:45:43;;;;;;;7.90;7.10;;;;;;;;;;5109013;28;20253;-43
2021/03/30 00:48:16;;;;;;;8.00;6.80;;;;;;;;;;5109558;28;20261;-43
2021/03/30 00:50:41;;;;;;;8.10;6.90;;;;;;;;;;5109525;28;20164;-43
2021/03/30 00:53:06;;;;;;;9.67;8.77;;;;;;;;;;5102332;28;20695;-43
2021/03/30 00:55:31;;;;;;;7.93;7.13;;;;;;;;;;5106768;28;20239;-43
2021/03/30 00:57:56;;;;;;;8.10;7.50;;;;;;;;;;5107570;28;20212;-43
2021/03/30 01:00:24;;;;;;;8.43;7.63;;;;;;;;;;5108563;28;20573;-43
2021/03/30 01:02:49;;;;;;;9.40;8.40;;;;;;;;;;5104513;28;20633;-43
2021/03/30 01:05:14;;;;;;;8.70;7.80;;;;;;;;;;5108705;28;20600;-43
2021/03/30 01:07:46;;;;;;;9.43;7.60;;;;;;;;;;5108638;28;20173;-43
2021/03/30 01:10:27;;;;;;;10.37;8.03;;;;;;;;;;5107123;28;20190;-43
2021/03/30 01:12:58;;;;;;;10.20;9.20;;;;;;;;;;5108859;28;20606;-43
2021/03/30 01:15:34;;;;;;;9.03;8.17;;;;;;;;;;5108632;28;21073;-43
2021/03/30 01:18:04;;;;;;;9.97;8.97;;;;;;;;;;5108379;28;20630;-43
2021/03/30 01:20:47;;;;;;;10.13;8.33;;;;;;;;;;5108424;28;20989;-42
2021/03/30 01:23:15;;;;;;;9.13;8.20;;;;;;;;;;5105617;28;20600;-41
2021/03/30 01:25:43;;;;;;;9.20;8.27;;;;;;;;;;5105461;28;20881;-43
2021/03/30 01:28:28;;;;;;;11.67;7.97;;;;;;;;;;5103776;28;20612;-43
2021/03/30 01:30:53;;;;;;;9.30;8.10;;;;;;;;;;5103760;28;20961;-42
2021/03/30 01:33:20;;;;;;;9.93;8.20;;;;;;;;;;5108885;28;20601;-43
2021/03/30 01:35:46;;;;;;;10.43;7.83;;;;;;;;;;5108028;28;20625;-43
2021/03/30 01:38:12;;;;;;;9.70;8.43;;;;;;;;;;5108951;28;20747;-42
2021/03/30 01:40:38;;;;;;;8.93;7.83;;;;;;;;;;5108132;28;20638;-44
2021/03/30 01:43:06;;;;;;;8.70;7.90;;;;;;;;;;5108051;28;20953;-42
2021/03/30 01:45:32;;;;;;;8.87;7.97;;;;;;;;;;5108534;28;20695;-41
2021/03/30 01:47:57;;;;;;;9.00;8.07;;;;;;;;;;5108375;28;20625;-42
2021/03/30 01:50:22;;;;;;;9.10;8.00;;;;;;;;;;5107923;28;20679;-42
2021/03/30 01:52:49;;;;;;;8.30;7.40;;;;;;;;;;5108452;28;20225;-42
2021/03/30 01:55:15;;;;;;;14.90;8.90;;;;;;;;;;5107643;28;20372;-42
2021/03/30 01:57:44;;;;;;;10.30;8.20;;;;;;;;;;5108296;28;21276;-42
2021/03/30 02:00:10;;;;;;;9.00;7.93;;;;;;;;;;5107417;28;20607;-42
2021/03/30 02:02:36;;;;;;;8.97;7.87;;;;;;;;;;5108098;28;20587;-43
2021/03/30 02:05:01;;;;;;;8.63;7.50;;;;;;;;;;5107969;28;20179;-42
2021/03/30 02:07:28;;;;;;;8.43;7.40;;;;;;;;;;5107834;28;20609;-42
2021/03/30 02:09:57;;;;;;;9.13;7.70;;;;;;;;;;5108348;28;20192;-43
2021/03/30 02:12:29;;;;;;;8.77;7.90;;;;;;;;;;5089443;28;21169;-42
2021/03/30 02:14:54;;;;;;;8.23;7.50;;;;;;;;;;5107655;28;20620;-43
2021/03/30 02:17:23;;;;;;;9.05;8.15;;;;;;;;;;5107819;28;20640;-43
2021/03/30 02:19:54;;;;;;;9.80;8.20;;;;;;;;;;5105906;28;20161;-43
2021/03/30 02:22:19;;;;;;;10.30;8.00;;;;;;;;;;5107087;28;20599;-42
2021/03/30 02:24:44;;;;;;;8.32;7.20;;;;;;;;;;5107753;28;20622;-44
2021/03/30 02:27:10;;;;;;;8.13;7.33;;;;;;;;;;5108394;28;20184;-43
2021/03/30 02:29:36;;;;;;;9.70;7.53;;;;;;;;;;5109087;28;20177;-43
2021/03/30 02:32:04;;;;;;;7.97;7.20;;;;;;;;;;5111668;28;20173;-43
2021/03/30 02:34:31;;;;;;;8.20;7.40;;;;;;;;;;5111829;28;20592;-41
2021/03/30 02:36:57;;;;;;;10.20;6.87;;;;;;;;;;5111779;28;20648;-42
2021/03/30 02:39:23;;;;;;;9.60;7.13;;;;;;;;;;5112114;28;20594;-42
2021/03/30 02:41:49;;;;;;;11.13;7.30;;;;;;;;;;5111375;28;20980;-42
2021/03/30 02:44:15;;;;;;;9.30;7.13;;;;;;;;;;5112799;27;20255;-42
2021/03/30 02:46:42;;;;;;;10.80;7.30;;;;;;;;;;5109709;28;20653;-41
2021/03/30 02:49:09;;;;;;;8.10;7.20;;;;;;;;;;5112304;28;20594;-42
2021/03/30 02:51:35;;;;;;;7.87;6.87;;;;;;;;;;5111640;27;20606;-42
2021/03/30 02:54:01;;;;;;;8.47;7.57;;;;;;;;;;5111469;28;20691;-42
2021/03/30 02:56:26;;;;;;;10.13;8.80;;;;;;;;;;5111023;28;20603;-42
2021/03/30 02:58:52;;;;;;;11.70;9.40;;;;;;;;;;5111564;28;20403;-42
2021/03/30 03:01:17;;;;;;;9.73;8.30;;;;;;;;;;5111687;28;20240;-42
2021/03/30 03:03:43;;;;;;;9.47;7.67;;;;;;;;;;5111195;28;20168;-42
2021/03/30 03:06:08;;;;;;;9.37;8.23;;;;;;;;;;5111736;28;20206;-42
2021/03/30 03:08:34;;;;;;;9.20;8.13;;;;;;;;;;5111994;28;20178;-42
2021/03/30 03:10:59;;;;;;;12.20;8.30;;;;;;;;;;5110527;28;20635;-42
2021/03/30 03:13:25;;;;;;;12.10;8.37;;;;;;;;;;5111426;28;20234;-42
2021/03/30 03:15:50;;;;;;;10.00;9.00;;;;;;;;;;5110432;28;20175;-42
2021/03/30 03:18:16;;;;;;;10.43;9.40;;;;;;;;;;5110048;28;20645;-43
2021/03/30 03:20:44;;;;;;;10.17;8.97;;;;;;;;;;5107567;28;20178;-42
2021/03/30 03:23:09;;;;;;;12.90;9.07;;;;;;;;;;5111527;27;20265;-42
2021/03/30 03:25:35;;;;;;;9.63;8.33;;;;;;;;;;5103152;28;21101;-42
2021/03/30 03:28:03;;;;;;;9.27;7.60;;;;;;;;;;5107652;28;20199;-42
2021/03/30 03:30:28;;;;;;;12.30;9.03;;;;;;;;;;5103665;28;20713;-42
2021/03/30 03:33:03;;;;;;;13.00;10.20;;;;;;;;;;5109224;28;20600;-41
2021/03/30 03:35:28;;;;;;;15.57;11.20;;;;;;;;;;5109987;28;20429;-42
2021/03/30 03:37:53;;;;;;;11.20;10.10;;;;;;;;;;5109972;28;20639;-42
2021/03/30 03:40:18;;;;;;;11.27;9.20;;;;;;;;;;5108157;28;20213;-43
2021/03/30 03:42:43;;;;;;;9.50;8.10;;;;;;;;;;5110152;28;20175;-42
2021/03/30 03:45:09;;;;;;;11.03;8.83;;;;;;;;;;5110297;28;20173;-43
2021/03/30 03:47:34;;;;;;;8.77;7.90;;;;;;;;;;5110956;28;20187;-42
2021/03/30 03:50:03;;;;;;;10.40;8.07;;;;;;;;;;5110328;28;21156;-41
2021/03/30 03:52:30;;;;;;;9.57;8.33;;;;;;;;;;5111137;28;20174;-41
2021/03/30 03:54:58;;;;;;;8.63;7.83;;;;;;;;;;5110141;28;20970;-41
2021/03/30 03:57:26;;;;;;;8.53;7.27;;;;;;;;;;5109941;28;20657;-41
2021/03/30 03:59:51;;;;;;;8.23;7.40;;;;;;;;;;5110461;28;20954;-42
2021/03/30 04:02:19;;;;;;;9.50;8.50;;;;;;;;;;5110083;28;20602;-42
2021/03/30 04:04:55;;;;;;;12.00;8.23;;;;;;;;;;5110681;28;20174;-41
2021/03/30 04:07:26;;;;;;;9.40;8.40;;;;;;;;;;5109848;28;20642;-40
2021/03/30 04:09:52;;;;;;;10.13;8.20;;;;;;;;;;5109760;28;21536;-42
2021/03/30 04:12:19;;;;;;;10.27;7.93;;;;;;;;;;5109908;28;20626;-42
2021/03/30 04:14:44;;;;;;;10.20;8.83;;;;;;;;;;5110438;28;20629;-43
2021/03/30 04:17:13;;;;;;;10.90;9.10;;;;;;;;;;5106627;28;20660;-42
2021/03/30 04:19:38;;;;;;;9.20;8.30;;;;;;;;;;5110422;28;20215;-42
2021/03/30 04:22:04;;;;;;;9.17;7.93;;;;;;;;;;5104464;28;20604;-43
2021/03/30 04:24:29;;;;;;;10.23;8.37;;;;;;;;;;5110339;28;20188;-42
2021/03/30 04:26:54;;;;;;;9.70;8.60;;;;;;;;;;5106333;28;20185;-42
2021/03/30 04:29:19;;;;;;;9.80;8.10;;;;;;;;;;5109674;28;20169;-42
2021/03/30 04:31:44;;;;;;;9.75;7.85;;;;;;;;;;5108794;28;20569;-42
2021/03/30 04:34:09;;;;;;;8.67;7.80;;;;;;;;;;5105637;28;20575;-43
2021/03/30 04:36:34;;;;;;;9.38;8.55;;;;;;;;;;5108072;28;20204;-43
2021/03/30 04:39:00;;;;;;;10.43;8.07;;;;;;;;;;5109180;28;20168;-43
2021/03/30 04:41:25;;;;;;;9.13;8.23;;;;;;;;;;5108966;28;20196;-42
2021/03/30 04:43:50;;;;;;;8.67;7.77;;;;;;;;;;5109880;28;20211;-42
2021/03/30 04:46:15;;;;;;;12.00;7.90;;;;;;;;;;5107821;28;20636;-42
2021/03/30 04:48:40;;;;;;;8.87;7.37;;;;;;;;;;5108846;28;20269;-44
2021/03/30 04:51:05;;;;;;;8.23;7.40;;;;;;;;;;5108759;28;20232;-42
2021/03/30 04:53:31;;;;;;;12.20;7.90;;;;;;;;;;5109069;28;20256;-42
2021/03/30 04:55:56;;;;;;;9.93;7.43;;;;;;;;;;5101044;28;20724;-43
2021/03/30 04:58:21;;;;;;;8.60;7.40;;;;;;;;;;5109226;28;20659;-42
2021/03/30 05:00:46;;;;;;;9.43;7.77;;;;;;;;;;5108709;28;20181;-45
2021/03/30 05:03:11;;;;;;;8.50;7.33;;;;;;;;;;5109605;28;20171;-43
2021/03/30 05:05:37;;;;;;;8.17;7.33;;;;;;;;;;5108877;28;20236;-43
2021/03/30 05:08:02;;;;;;;8.43;7.60;;;;;;;;;;5108516;28;20797;-43
2021/03/30 05:10:27;;;;;;;13.20;7.70;;;;;;;;;;5109211;28;20177;-42
2021/03/30 05:12:53;;;;;;;9.57;8.20;;;;;;;;;;5108920;28;20243;-42
2021/03/30 05:15:18;;;;;;;10.87;8.10;;;;;;;;;;5109042;28;20706;-43
2021/03/30 05:17:43;;;;;;;9.37;7.60;;;;;;;;;;5104027;28;20204;-43
2021/03/30 05:20:08;;;;;;;13.10;7.73;;;;;;;;;;5109345;27;20181;-43
2021/03/30 05:22:34;;;;;;;8.50;7.70;;;;;;;;;;5109066;28;20213;-42
2021/03/30 05:25:01;;;;;;;8.50;7.60;;;;;;;;;;5108501;28;20185;-42
2021/03/30 05:27:26;;;;;;;8.27;7.50;;;;;;;;;;5106096;28;20188;-43
2021/03/30 05:29:51;;;;;;;9.50;8.53;;;;;;;;;;5104805;28;20599;-42
2021/03/30 05:32:17;;;;;;;10.00;8.10;;;;;;;;;;5107751;28;20639;-42
2021/03/30 05:34:43;;;;;;;9.93;7.10;;;;;;;;;;5108217;28;20193;-42
2021/03/30 05:37:09;;;;;;;9.17;8.20;;;;;;;;;;5107026;28;20754;-42
2021/03/30 05:39:34;;;;;;;9.30;6.93;;;;;;;;;;5107714;28;20590;-43
2021/03/30 05:41:59;;;;;;;8.80;7.17;;;;;;;;;;5100571;28;20182;-43
2021/03/30 05:44:25;;;;;;;12.23;7.60;;;;;;;;;;5098317;28;20641;-43
2021/03/30 05:47:11;;;;;;;7.77;7.00;;;;;;;;;;5099011;28;20358;-42
2021/03/30 05:49:39;;;;;;;9.27;7.87;;;;;;;;;;5104118;28;20599;-43
2021/03/30 05:52:26;;;;;;;10.83;7.00;;;;;;;;;;5094408;28;20616;-42
2021/03/30 05:54:54;;;;;;;8.07;7.20;;;;;;;;;;5094009;28;21533;-43
2021/03/30 05:57:23;;;;;;;7.70;6.87;;;;;;;;;;5098323;28;20641;-43
2021/03/30 05:59:51;;;;;;;7.00;6.40;;;;;;;;;;5099599;28;20768;-43
2021/03/30 06:02:20;;;;;;;8.80;7.30;;;;;;;;;;5102637;28;20727;-43
2021/03/30 06:04:46;;;;;;;7.67;6.97;;;;;;;;;;5099247;28;20672;-43
2021/03/30 06:07:11;;;;;;;9.23;7.10;;;;;;;;;;5101700;28;20604;-43
2021/03/30 06:09:36;;;;;;;7.53;6.73;;;;;;;;;;5103820;28;20178;-43
2021/03/30 06:12:01;;;;;;;7.90;6.90;;;;;;;;;;5098750;28;20188;-43
2021/03/30 06:14:36;;;;;;;10.43;6.90;;;;;;;;;;5099877;28;20178;-43
2021/03/30 06:17:01;;;;;;;11.30;7.30;;;;;;;;;;5097556;28;20198;-44
2021/03/30 06:19:26;;;;;;;7.70;7.00;;;;;;;;;;5098663;28;20623;-42
2021/03/30 06:21:57;;;;;;;8.70;7.73;;;;;;;;;;5091056;28;20167;-45
2021/03/30 06:24:22;;;;;;;8.70;7.30;;;;;;;;;;5095409;28;20184;-43
2021/03/30 06:26:47;;;;;;;7.75;6.95;;;;;;;;;;5098140;28;20602;-42
2021/03/30 06:29:25;;;;;;;8.40;7.30;;;;;;;;;;5093676;28;20189;-41
2021/03/30 06:31:50;;;;;;;8.73;7.83;;;;;;;;;;5092014;28;20168;-41
2021/03/30 06:34:23;;;;;;;12.97;6.80;;;;;;;;;;5102920;28;20673;-42
2021/03/30 06:36:48;;;;;;;7.03;6.33;;;;;;;;;;5095270;28;20189;-43
2021/03/30 06:39:14;;;;;;;9.07;7.43;;;;;;;;;;5102115;28;20602;-42
2021/03/30 06:41:46;;;;;;;9.30;7.17;;;;;;;;;;5103734;28;20761;-43
2021/03/30 06:44:28;;;;;;;8.20;7.47;;;;;;;;;;5104094;28;21060;-42
2021/03/30 06:47:05;;;;;;;8.70;7.77;;;;;;;;;;5095362;28;20603;-42
2021/03/30 06:49:31;;;;;;;8.10;6.70;;;;;;;;;;5099901;28;20597;-42
2021/03/30 06:51:57;;;;;;;8.57;6.90;;;;;;;;;;5092340;28;20606;-42
2021/03/30 06:54:22;;;;;;;7.30;6.60;;;;;;;;;;5098397;28;20597;-43
2021/03/30 06:56:49;;;;;;;9.17;8.03;;;;;;;;;;5102497;28;20586;-42
2021/03/30 06:59:14;;;;;;;13.13;8.63;;;;;;;;;;5099557;28;20194;-42
2021/03/30 07:01:40;;;;;;;11.73;8.00;;;;;;;;;;5102156;28;20605;-43
2021/03/30 07:04:06;;;;;;;10.43;8.10;;;;;;;;;;5099223;28;20190;-43
2021/03/30 07:06:31;;;;;;;10.10;7.87;;;;;;;;;;5094967;28;21188;-43
2021/03/30 07:08:57;;;;;;;12.83;7.70;;;;;;;;;;5097580;28;20826;-43
2021/03/30 07:11:22;;;;;;;9.53;7.37;;;;;;;;;;5102676;28;20775;-42
2021/03/30 07:13:47;;;;;;;8.90;7.37;;;;;;;;;;5110519;28;20231;-42
2021/03/30 07:16:22;;;;;;;9.37;7.43;;;;;;;;;;5097201;28;20517;-43
2021/03/30 07:18:49;;;;;;;9.30;8.13;;;;;;;;;;5104108;27;20202;-43
2021/03/30 07:21:20;;;;;;;9.97;8.60;;;;;;;;;;5108298;27;20603;-44
2021/03/30 07:23:46;;;;;;;8.50;7.60;;;;;;;;;;5106785;28;20953;-43
2021/03/30 07:26:18;;;;;;;8.27;7.30;;;;;;;;;;5105469;28;20592;-43
2021/03/30 07:28:45;;;;;;;11.43;8.90;;;;;;;;;;5101065;28;21189;-43
2021/03/30 07:31:13;;;;;;;13.63;12.27;;;;;;;;;;5097352;28;20593;-42
2021/03/30 07:33:44;;;;;;;9.13;8.33;;;;;;;;;;5107058;28;20660;-42
2021/03/30 07:36:10;;;;;;;9.90;8.47;;;;;;;;;;5108063;28;20605;-42
2021/03/30 07:38:39;;;;;;;9.90;8.13;;;;;;;;;;5109825;28;20738;-41
2021/03/30 07:41:04;;;;;;;9.20;8.23;;;;;;;;;;5109155;28;20227;-42
2021/03/30 07:43:30;;;;;;;9.47;8.20;;;;;;;;;;5101503;28;20619;-41
2021/03/30 07:45:56;;;;;;;9.80;8.80;;;;;;;;;;5109983;28;20823;-42
2021/03/30 07:48:23;;;;;;;8.77;7.97;;;;;;;;;;5109152;28;20675;-48
2021/03/30 07:51:04;;;;;;;10.73;8.63;;;;;;;;;;5100986;28;20689;-42
2021/03/30 07:53:35;;;;;;;9.50;8.17;;;;;;;;;;5095814;28;21231;-42
2021/03/30 07:56:00;;;;;;;9.07;8.17;;;;;;;;;;5107110;28;20656;-42
2021/03/30 07:58:35;;;;;;;11.25;7.35;;;;;;;;;;5092401;28;20640;-42
2021/03/30 08:01:00;;;;;;;9.77;7.60;;;;;;;;;;5105506;28;20230;-43
2021/03/30 08:03:26;;;;;;;11.47;7.57;;;;;;;;;;5110515;28;20568;-43
2021/03/30 08:06:10;;;;;;;9.37;7.97;;;;;;;;;;5108423;28;20426;-43
2021/03/30 08:08:46;;;;;;;8.70;7.80;;;;;;;;;;5109172;28;20697;-43
2021/03/30 08:11:11;;;;;;;9.50;7.90;;;;;;;;;;5110480;28;21194;-43
2021/03/30 08:13:47;;;;;;;7.80;7.00;;;;;;;;;;5110245;28;20696;-43
2021/03/30 08:16:12;;;;;;;9.87;7.70;;;;;;;;;;5110599;28;20271;-43
2021/03/30 08:18:40;;;;;;;9.73;8.07;;;;;;;;;;5109839;28;21204;-43
2021/03/30 08:21:10;;;;;;;8.47;6.80;;;;;;;;;;5109795;28;20649;-43
2021/03/30 08:23:53;;;;;;;9.20;8.00;;;;;;;;;;5109184;28;20616;-43
2021/03/30 08:26:28;;;;;;;9.17;7.83;;;;;;;;;;5108623;28;20637;-43
2021/03/30 08:29:05;;;;;;;8.43;7.40;;;;;;;;;;5109362;28;20704;-43
2021/03/30 08:31:33;;;;;;;9.73;7.70;;;;;;;;;;5109169;28;20636;-43
2021/03/30 08:33:59;;;;;;;9.30;7.13;;;;;;;;;;5107442;28;20609;-43
2021/03/30 08:36:26;;;;;;;9.13;8.10;;;;;;;;;;5108882;28;20734;-44
2021/03/30 08:38:52;;;;;;;8.83;7.20;;;;;;;;;;5107680;28;20747;-44
2021/03/30 08:41:36;;;;;;;8.03;7.17;;;;;;;;;;5110102;28;20622;-43
2021/03/30 08:44:13;;;;;;;9.37;8.27;;;;;;;;;;5109695;28;20633;-44
2021/03/30 08:46:40;;;;;;;8.70;7.90;;;;;;;;;;5109528;27;20588;-43
2021/03/30 08:49:20;;;;;;;7.90;7.03;;;;;;;;;;5108510;28;20611;-43
2021/03/30 08:51:45;;;;;;;9.00;8.10;;;;;;;;;;5110512;28;20574;-42
2021/03/30 08:54:11;;;;;;;9.30;8.37;;;;;;;;;;5109556;28;20605;-42
2021/03/30 08:56:36;;;;;;;9.07;7.60;;;;;;;;;;5108971;28;20229;-42
2021/03/30 08:59:03;;;;;;;10.73;7.80;;;;;;;;;;5108999;28;20183;-43
2021/03/30 09:01:28;;;;;;;9.33;8.30;;;;;;;;;;5109177;28;20253;-41
2021/03/30 09:03:53;;;;;;;10.50;7.60;;;;;;;;;;5091092;28;21223;-42
2021/03/30 09:06:36;;;;;;;8.80;7.80;;;;;;;;;;5109295;28;20190;-42
2021/03/30 09:09:02;;;;;;;13.50;8.90;;;;;;;;;;5107219;28;20184;-42
2021/03/30 09:11:28;;;;;;;9.90;8.13;;;;;;;;;;5108618;28;20596;-42
2021/03/30 09:13:56;;;;;;;14.07;8.60;;;;;;;;;;5109152;28;20567;-42
2021/03/30 09:16:21;;;;;;;9.33;7.27;;;;;;;;;;5108874;28;20265;-43
2021/03/30 09:18:46;;;;;;;10.48;8.00;;;;;;;;;;5107640;28;20737;-43
2021/03/30 09:21:17;;;;;;;9.27;8.00;;;;;;;;;;5108094;28;20615;-43
2021/03/30 09:23:43;;;;;;;10.70;8.90;;;;;;;;;;5109535;28;20664;-43
2021/03/30 09:26:12;;;;;;;9.70;8.40;;;;;;;;;;5104189;28;20605;-43
2021/03/30 09:28:39;;;;;;;9.80;8.90;;;;;;;;;;5108596;28;20611;-43
2021/03/30 09:31:04;;;;;;;11.10;8.30;;;;;;;;;;5109206;28;21423;-43
2021/03/30 09:33:29;;;;;;;11.00;9.63;;;;;;;;;;5108153;28;20616;-43
2021/03/30 09:35:54;;;;;;;12.73;10.80;;;;;;;;;;5108918;28;20197;-43
2021/03/30 09:38:20;;;;;;;9.70;8.35;;;;;;;;;;5106699;28;20212;-43
2021/03/30 09:40:45;;;;;;;12.43;9.43;;;;;;;;;;5100008;28;20256;-43
2021/03/30 09:43:15;;;;;;;13.70;10.20;;;;;;;;;;5109207;28;20185;-43
2021/03/30 09:45:41;;;;;;;13.30;9.60;;;;;;;;;;5108523;28;20211;-44
2021/03/30 09:48:07;;;;;;;14.73;10.93;;;;;;;;;;5108541;28;20612;-44
2021/03/30 09:50:33;;;;;;;10.63;9.60;;;;;;;;;;5108325;28;20634;-43
2021/03/30 09:53:05;;;;;;;10.77;9.77;;;;;;;;;;5107977;28;20647;-44
2021/03/30 09:55:32;;;;;;;14.47;10.33;;;;;;;;;;5107236;28;20730;-44
2021/03/30 09:58:01;;;;;;;10.90;9.77;;;;;;;;;;5107090;28;20676;-44
2021/03/30 10:00:27;;;;;;;11.33;10.20;;;;;;;;;;5108921;28;20573;-44
2021/03/30 10:02:52;;;;;;;12.23;10.90;;;;;;;;;;5108173;28;21163;-43
2021/03/30 10:05:18;;;;;;;11.87;10.50;;;;;;;;;;5106419;28;20701;-43
2021/03/30 10:07:43;;;;;;;14.70;11.47;;;;;;;;;;5108459;28;20226;-44
2021/03/30 10:10:09;;;;;;;12.00;10.00;;;;;;;;;;5107417;28;20736;-43
2021/03/30 10:12:46;;;;;;;11.10;10.10;;;;;;;;;;5109005;28;20179;-42
2021/03/30 10:15:11;;;;;;;10.93;9.80;;;;;;;;;;5108838;28;20926;-42
2021/03/30 10:17:37;;;;;;;13.57;10.90;;;;;;;;;;5107946;28;20641;-43
2021/03/30 10:20:02;;;;;;;12.97;11.50;;;;;;;;;;5106110;28;20296;-42
2021/03/30 10:22:31;;;;;;;12.03;10.73;;;;;;;;;;5108588;28;20536;-42
2021/03/30 10:25:06;;;;;;;11.83;10.63;;;;;;;;;;5107549;28;20181;-43
2021/03/30 10:27:31;;;;;;;11.63;9.57;;;;;;;;;;5108658;28;20614;-43
2021/03/30 10:29:56;;;;;;;10.83;9.87;;;;;;;;;;5107873;28;20649;-43
2021/03/30 10:32:21;;;;;;;10.20;9.20;;;;;;;;;;5108605;28;20227;-43
2021/03/30 10:34:47;;;;;;;11.83;9.53;;;;;;;;;;5108119;28;20185;-43
2021/03/30 10:37:14;;;;;;;11.00;9.87;;;;;;;;;;5107858;28;20553;-42
2021/03/30 10:39:42;;;;;;;10.90;9.90;;;;;;;;;;5107075;28;21003;-43
2021/03/30 10:42:11;;;;;;;10.30;9.40;;;;;;;;;;5107636;28;20589;-43
2021/03/30 10:44:38;;;;;;;12.90;9.60;;;;;;;;;;5107684;28;20604;-43
2021/03/30 10:47:20;;;;;;;10.37;9.33;;;;;;;;;;5108051;28;20608;-42
2021/03/30 10:49:46;;;;;;;9.93;8.93;;;;;;;;;;5103973;28;20615;-45
2021/03/30 10:52:16;;;;;;;10.13;9.13;;;;;;;;;;5110710;28;21407;-44
2021/03/30 10:54:42;;;;;;;10.60;9.60;;;;;;;;;;5110883;28;20688;-43
2021/03/30 10:57:16;;;;;;;13.87;10.07;;;;;;;;;;5111038;28;21184;-43
2021/03/30 10:59:42;;;;;;;11.17;10.17;;;;;;;;;;5112359;28;20633;-43
2021/03/30 11:02:08;;;;;;;10.60;9.60;;;;;;;;;;5110679;28;20591;-43
2021/03/30 11:04:33;;;;;;;10.43;9.33;;;;;;;;;;5111928;28;20603;-43
2021/03/30 11:06:58;;;;;;;9.73;8.73;;;;;;;;;;5111926;28;20542;-43
2021/03/30 11:09:25;;;;;;;10.17;9.20;;;;;;;;;;5110970;28;20174;-44
2021/03/30 11:11:50;;;;;;;13.17;10.50;;;;;;;;;;5111455;28;20170;-44
2021/03/30 11:14:15;;;;;;;10.63;9.63;;;;;;;;;;5111306;28;21181;-42
2021/03/30 11:16:41;;;;;;;10.03;9.07;;;;;;;;;;5111805;28;20387;-42
2021/03/30 11:19:08;;;;;;;10.40;9.27;;;;;;;;;;5110499;27;20187;-41
2021/03/30 11:21:33;;;;;;;9.20;8.30;;;;;;;;;;5112262;28;20543;-43
2021/03/30 11:24:01;;;;;;;10.60;9.10;;;;;;;;;;5111828;28;20663;-43
2021/03/30 11:26:27;;;;;;;10.17;8.73;;;;;;;;;;5105982;28;20186;-43
2021/03/30 11:28:53;;;;;;;9.50;8.67;;;;;;;;;;5110976;28;20683;-42
2021/03/30 11:31:51;;;;;;;8.60;7.80;;;;;;;;;;5111653;28;20170;-42
2021/03/30 11:34:13;;;;;;;9.07;8.27;;;;;;;;;;5109006;28;21172;-42
2021/03/30 11:36:40;;;;;;;10.20;7.83;;;;;;;;;;5111306;28;20581;-42
2021/03/30 11:39:06;;;;;;;9.37;8.43;;;;;;;;;;5108415;28;20613;-43
2021/03/30 11:41:31;;;;;;;10.93;9.87;;;;;;;;;;5109966;28;20631;-48
2021/03/30 11:43:56;;;;;;;11.32;10.23;;;;;;;;;;5109820;28;20282;-43
2021/03/30 11:46:21;;;;;;;10.55;9.45;;;;;;;;;;5111278;28;20170;-43
2021/03/30 11:48:46;;;;;;;10.02;9.02;;;;;;;;;;5110220;28;20171;-43
2021/03/30 11:51:11;;;;;;;10.63;8.70;;;;;;;;;;5110344;28;20617;-43
2021/03/30 11:53:39;;;;;;;9.67;8.83;;;;;;;;;;5110722;28;20181;-43
2021/03/30 11:56:05;;;;;;;9.93;8.93;;;;;;;;;;5107667;28;20704;-43
2021/03/30 11:58:30;;;;;;;9.48;8.35;;;;;;;;;;5110938;28;21177;-43
2021/03/30 12:00:55;;;;;;;10.17;8.83;;;;;;;;;;5110523;28;20727;-43
2021/03/30 12:03:20;;;;;;;10.60;9.60;;;;;;;;;;5108948;28;20253;-43
2021/03/30 12:05:45;;;;;;;9.93;8.98;;;;;;;;;;5110084;27;20173;-42
2021/03/30 12:08:10;;;;;;;10.93;9.67;;;;;;;;;;5110155;28;20182;-43
2021/03/30 12:10:36;;;;;;;10.38;9.38;;;;;;;;;;5110077;28;20182;-43
2021/03/30 12:13:01;;;;;;;10.53;9.53;;;;;;;;;;5109746;28;20176;-43
2021/03/30 12:15:26;;;;;;;9.40;8.60;;;;;;;;;;5110708;28;20235;-43
2021/03/30 12:17:51;;;;;;;12.60;10.73;;;;;;;;;;5110016;28;20267;-43
2021/03/30 12:20:16;;;;;;;10.90;9.90;;;;;;;;;;5108973;28;20197;-44
2021/03/30 12:22:42;;;;;;;10.00;9.00;;;;;;;;;;5110946;28;20174;-44
2021/03/30 12:25:07;;;;;;;10.37;8.33;;;;;;;;;;5108772;28;20655;-43
2021/03/30 12:27:32;;;;;;;12.30;9.97;;;;;;;;;;5108963;28;20237;-43
2021/03/30 12:29:58;;;;;;;9.97;8.97;;;;;;;;;;5110728;28;20179;-43
2021/03/30 12:32:23;;;;;;;11.10;10.10;;;;;;;;;;5109744;28;20189;-42
2021/03/30 12:34:48;;;;;;;11.63;10.43;;;;;;;;;;5110882;28;20176;-41
2021/03/30 12:37:13;;;;;;;9.23;8.33;;;;;;;;;;5106419;28;24417;-42
2021/03/30 12:39:39;;;;;;;11.23;9.93;;;;;;;;;;5106390;28;20842;-42
2021/03/30 12:42:05;;;;;;;11.67;10.63;;;;;;;;;;5108759;28;20667;-43
2021/03/30 12:44:30;;;;;;;10.93;9.93;;;;;;;;;;5110624;28;20172;-43
2021/03/30 12:46:55;;;;;;;11.53;10.33;;;;;;;;;;5109690;28;20693;-44
2021/03/30 12:49:22;;;;;;;13.32;10.68;;;;;;;;;;5109519;28;20174;-43
2021/03/30 12:51:48;;;;;;;10.97;9.97;;;;;;;;;;5110409;28;20172;-44
2021/03/30 12:54:13;;;;;;;11.50;10.30;;;;;;;;;;5107792;28;20707;-44
2021/03/30 12:56:38;;;;;;;12.48;11.18;;;;;;;;;;5109490;28;20739;-42
2021/03/30 12:59:03;;;;;;;14.55;11.98;;;;;;;;;;5108902;28;20207;-42
2021/03/30 13:01:31;;;;;;;11.85;10.75;;;;;;;;;;5110289;28;20584;-42
2021/03/30 13:03:56;;;;;;;12.60;11.40;;;;;;;;;;5108948;28;20273;-42
2021/03/30 13:06:24;;;;;;;13.63;11.20;;;;;;;;;;5109198;28;20691;-43
2021/03/30 13:08:49;;;;;;;11.40;10.20;;;;;;;;;;5108975;28;20185;-43
2021/03/30 13:11:14;;;;;;;11.25;9.43;;;;;;;;;;5108929;28;20584;-43
2021/03/30 13:13:39;;;;;;;12.00;10.77;;;;;;;;;;5107415;28;20178;-43
2021/03/30 13:16:05;;;;;;;11.07;10.07;;;;;;;;;;5109209;28;20253;-43
2021/03/30 13:18:30;;;;;;;11.07;9.97;;;;;;;;;;5107613;28;20197;-43
2021/03/30 13:20:55;;;;;;;10.43;9.33;;;;;;;;;;5109793;28;20174;-43
2021/03/30 13:23:20;;;;;;;12.63;11.32;;;;;;;;;;5108274;28;20213;-43
2021/03/30 13:25:46;;;;;;;11.27;9.80;;;;;;;;;;5107292;28;20182;-43
2021/03/30 13:28:11;;;;;;;11.95;10.35;;;;;;;;;;5108117;28;20646;-43
2021/03/30 13:30:37;;;;;;;9.87;9.03;;;;;;;;;;5109242;28;20310;-43
2021/03/30 13:33:03;;;;;;;11.10;10.10;;;;;;;;;;5107654;28;20166;-43
2021/03/30 13:35:29;;;;;;;;;;;;;;;;;;5106967;28;20552;-43
2021/03/30 13:37:54;;;;;;;12.75;9.90;;;;;;;;;;5107346;28;20329;-43
2021/03/30 13:40:19;;;;;;;11.73;9.70;;;;;;;;;;5106199;28;20288;-43
2021/03/30 13:42:44;;;;;;;10.17;9.03;;;;;;;;;;5107798;28;20174;-43
2021/03/30 13:45:10;;;;;;;10.03;9.00;;;;;;;;;;5108384;28;20310;-42
2021/03/30 13:47:35;;;;;;;10.63;9.53;;;;;;;;;;5107068;28;20210;-44
2021/03/30 13:50:01;;;;;;;10.13;9.23;;;;;;;;;;5104197;28;20175;-44
2021/03/30 13:52:26;;;;;;;13.07;10.10;;;;;;;;;;5106713;28;20176;-43
2021/03/30 13:54:51;;;;;;;10.27;9.23;;;;;;;;;;5106707;28;20185;-43
2021/03/30 13:57:17;;;;;;;11.47;9.53;;;;;;;;;;5104198;28;20256;-43
2021/03/30 13:59:42;;;;;;;11.20;9.93;;;;;;;;;;5107023;28;20170;-42
2021/03/30 14:02:08;;;;;;;10.33;9.33;;;;;;;;;;5107591;28;20584;-42
2021/03/30 14:04:33;;;;;;;9.67;8.67;;;;;;;;;;5106829;28;20574;-42
2021/03/30 14:06:58;;;;;;;10.37;9.27;;;;;;;;;;5105290;28;21054;-45
2021/03/30 14:09:23;;;;;;;10.70;8.63;;;;;;;;;;5106228;28;20199;-43
2021/03/30 14:11:55;;;;;;;;;;;;;;;;;;5109672;28;20374;-42
2021/03/30 14:14:30;;;;;;;10.50;9.40;;;;;;;;;;5107608;28;20194;-43
2021/03/30 14:17:05;;;;;;;11.77;8.57;;;;;;;;;;5107281;28;20571;-43
2021/03/30 14:19:38;;;;;;;10.03;9.13;;;;;;;;;;5106570;28;20614;-43
2021/03/30 14:22:05;;;;;;;10.23;9.23;;;;;;;;;;5108490;28;20542;-43
2021/03/30 14:24:30;;;;;;;;;;;;;;;;;;5109180;28;20392;-44
2021/03/30 14:26:55;;;;;;;;;;;;;;;;;;5114609;28;20512;-42
2021/03/30 14:29:20;;;;;;;;;;;;;;;;;;5113722;28;19908;-43
2021/03/30 14:31:45;;;;;;;;;;;;;;;;;;5116343;28;19936;-43
2021/03/30 14:34:10;;;;;;;;;;;;;;;;;;5113267;28;20396;-43
2021/03/30 14:36:36;;;;;;;10.43;9.43;;;;;;;;;;5114193;28;20670;-43
2021/03/30 14:39:02;;;;;;;10.30;9.40;;;;;;;;;;5113763;28;20667;-43